Time;durP1;ratioP1;P1;durP2;ratioP2;P2;SDS_P1;SDS_P2;PMS_P1;PMS_P2;Temp;Humidity;BMP_temperature;BMP_pressure;BME280_temperature;BME280_humidity;BME280_pressure;Samples;Min_cycle;Max_cycle;Signal;HPM_P1;HPM_P2
2022/05/04 00:01:54;;;;;;;13.50;6.20;;;;;;;12.03;50.94;99229.92;1749640;82;21078;-39
2022/05/04 00:04:20;;;;;;;13.58;6.30;;;;;;;12.05;51.11;99233.30;1750064;82;21533;-39
2022/05/04 00:06:46;;;;;;;8.60;5.75;;;;;;;12.02;51.33;99244.02;1749902;82;20984;-40
2022/05/04 00:09:12;;;;;;;11.50;5.62;;;;;;;12.02;51.73;99247.98;1749856;82;21492;-39
2022/05/04 00:11:40;;;;;;;12.80;6.10;;;;;;;11.98;51.82;99244.69;1749811;82;20988;-38
2022/05/04 00:14:06;;;;;;;12.98;5.87;;;;;;;11.97;51.94;99234.23;1749769;82;20948;-38
2022/05/04 00:16:31;;;;;;;9.58;5.42;;;;;;;11.98;52.11;99236.78;1749674;82;21373;-38
2022/05/04 00:18:57;;;;;;;8.38;5.65;;;;;;;11.99;51.92;99239.80;1749857;82;21743;-37
2022/05/04 00:21:23;;;;;;;9.73;5.60;;;;;;;12.01;52.14;99248.45;1749897;82;21524;-39
2022/05/04 00:23:49;;;;;;;11.55;6.10;;;;;;;12.01;52.11;99248.94;1749843;82;20991;-40
2022/05/04 00:26:14;;;;;;;7.33;5.15;;;;;;;12.03;52.21;99251.84;1749844;82;20994;-37
2022/05/04 00:28:40;;;;;;;8.90;5.60;;;;;;;12.06;52.22;99251.66;1749821;82;20992;-38
2022/05/04 00:31:06;;;;;;;7.58;5.45;;;;;;;12.06;52.97;99250.34;1749824;82;20987;-39
2022/05/04 00:33:32;;;;;;;12.40;5.75;;;;;;;12.08;52.55;99256.84;1749812;82;20991;-40
2022/05/04 00:35:57;;;;;;;7.80;5.37;;;;;;;12.05;52.73;99250.44;1749813;82;20988;-40
2022/05/04 00:38:23;;;;;;;9.03;5.67;;;;;;;12.08;52.40;99259.48;1749937;82;20988;-37
2022/05/04 00:40:49;;;;;;;7.30;4.87;;;;;;;12.07;52.64;99260.41;1749827;82;20983;-39
2022/05/04 00:43:25;;;;;;;9.40;5.50;;;;;;;12.06;52.51;99260.02;1749723;82;21027;-38
2022/05/04 00:45:51;;;;;;;10.05;4.87;;;;;;;12.05;53.01;99265.77;1749825;82;20994;-39
2022/05/04 00:48:17;;;;;;;8.28;4.85;;;;;;;12.09;52.67;99270.37;1749884;82;21055;-41
2022/05/04 00:50:46;;;;;;;7.78;4.92;;;;;;;12.07;52.54;99264.36;1749829;82;21054;-35
2022/05/04 00:53:13;;;;;;;6.37;4.97;;;;;;;12.07;52.46;99267.00;1749827;82;21500;-36
2022/05/04 00:55:40;;;;;;;9.67;5.10;;;;;;;12.02;53.06;99271.22;1750037;82;20991;-39
2022/05/04 01:00:51;;;;;;;7.15;4.92;;;;;;;12.02;53.06;99274.33;1750011;82;21014;-39
2022/05/04 01:03:18;;;;;;;8.60;5.28;;;;;;;11.98;53.19;99277.63;1749766;82;21030;-38
2022/05/04 01:05:43;;;;;;;6.33;5.00;;;;;;;11.97;53.25;99284.30;1750083;82;20995;-36
2022/05/04 01:08:09;;;;;;;13.00;5.00;;;;;;;11.95;53.34;99284.87;1749807;82;21496;-37
2022/05/04 01:10:35;;;;;;;10.25;5.00;;;;;;;11.87;53.71;99284.00;1749888;82;21334;-39
2022/05/04 01:13:01;;;;;;;8.93;5.35;;;;;;;11.85;53.87;99284.56;1749880;82;20968;-40
2022/05/04 01:15:27;;;;;;;9.43;5.92;;;;;;;11.86;54.13;99288.88;1749801;82;20988;-40
2022/05/04 01:17:53;;;;;;;8.53;5.55;;;;;;;11.79;55.04;99284.47;1749803;82;20987;-40
2022/05/04 01:20:20;;;;;;;9.10;6.33;;;;;;;11.76;54.23;99284.64;1749825;82;20988;-39
2022/05/04 01:22:45;;;;;;;7.97;5.90;;;;;;;11.74;54.29;99287.84;1749955;82;20991;-40
2022/05/04 01:25:12;;;;;;;10.70;6.55;;;;;;;11.71;54.52;99290.66;1749783;82;21346;-40
2022/05/04 01:27:38;;;;;;;7.95;5.75;;;;;;;11.70;54.59;99296.88;1750073;82;21010;-41
2022/05/04 01:30:05;;;;;;;13.65;6.55;;;;;;;11.67;54.10;99291.78;1749850;82;21027;-40
2022/05/04 01:32:32;;;;;;;11.08;6.58;;;;;;;11.64;54.82;99292.83;1750053;82;20994;-38
2022/05/04 01:34:58;;;;;;;12.50;6.80;;;;;;;11.64;54.40;99289.33;1749768;82;20999;-39
2022/05/04 01:37:24;;;;;;;10.28;6.17;;;;;;;11.61;54.52;99289.53;1749765;82;20995;-35
2022/05/04 01:39:51;;;;;;;10.48;6.10;;;;;;;11.59;54.50;99300.16;1749883;82;21024;-36
2022/05/04 01:42:16;;;;;;;8.63;6.12;;;;;;;11.58;55.03;99292.34;1749761;82;20963;-36
2022/05/04 01:44:45;;;;;;;12.75;6.33;;;;;;;11.56;54.49;99291.59;1749755;82;21003;-36
2022/05/04 01:47:12;;;;;;;8.53;6.17;;;;;;;11.53;54.85;99292.15;1749738;82;20967;-38
2022/05/04 01:49:38;;;;;;;11.05;5.75;;;;;;;11.49;55.94;99294.56;1742334;82;21032;-36
2022/05/04 01:52:05;;;;;;;8.73;6.62;;;;;;;11.47;55.54;99296.44;1741901;82;21474;-38
2022/05/04 01:54:31;;;;;;;9.48;6.05;;;;;;;11.46;55.20;99290.81;1741939;82;20996;-35
2022/05/04 01:56:57;;;;;;;10.53;6.03;;;;;;;11.43;56.32;99294.94;1741827;82;20992;-39
2022/05/04 01:59:22;;;;;;;7.08;5.70;;;;;;;11.44;55.51;99294.45;1741805;82;20992;-37
2022/05/04 02:01:49;;;;;;;9.33;5.62;;;;;;;11.42;55.92;99297.66;1741842;82;20992;-39
2022/05/04 02:04:15;;;;;;;12.18;5.83;;;;;;;11.35;57.47;99298.50;1741755;82;20964;-37
2022/05/04 02:06:41;;;;;;;10.15;6.03;;;;;;;11.28;57.16;99295.37;1741868;82;21019;-38
2022/05/04 02:09:08;;;;;;;11.93;5.72;;;;;;;11.28;57.65;99298.48;1741873;82;20984;-37
2022/05/04 02:11:35;;;;;;;11.95;5.75;;;;;;;11.27;56.78;99298.08;1741761;82;20964;-38
2022/05/04 02:14:01;;;;;;;11.53;5.92;;;;;;;11.26;57.46;99296.38;1741949;82;21043;-38
2022/05/04 02:16:28;;;;;;;9.13;5.85;;;;;;;11.24;57.72;99292.98;1742068;82;21655;-37
2022/05/04 02:18:55;;;;;;;9.90;6.58;;;;;;;11.25;56.77;99290.27;1741917;82;20977;-35
2022/05/04 02:21:21;;;;;;;9.65;5.92;;;;;;;11.24;56.84;99291.67;1741928;82;20988;-40
2022/05/04 02:23:47;;;;;;;7.95;5.97;;;;;;;11.21;57.44;99294.03;1741795;82;21019;-37
2022/05/04 02:26:13;;;;;;;8.70;6.10;;;;;;;11.21;57.66;99295.82;1741857;82;21039;-36
2022/05/04 02:28:39;;;;;;;10.90;5.47;;;;;;;11.23;57.46;99288.68;1741828;82;21481;-36
2022/05/04 02:31:05;;;;;;;9.23;6.15;;;;;;;11.21;58.00;99295.82;1741782;82;20992;-36
2022/05/04 02:33:32;;;;;;;7.53;5.47;;;;;;;11.21;57.48;99292.71;1741779;82;20968;-39
2022/05/04 02:38:41;;;;;;;7.62;5.60;;;;;;;11.23;57.95;99286.05;1741845;82;21008;-36
2022/05/04 02:43:28;;;;;;;9.35;5.50;;;;;;;11.25;58.03;99294.22;1818406;79;22396;-38
2022/05/04 02:45:56;;;;;;;9.78;5.25;;;;;;;11.23;58.12;99301.84;1791597;80;20996;-38
2022/05/04 02:48:22;;;;;;;7.95;5.15;;;;;;;11.22;58.63;99298.81;1793121;80;20967;-38
2022/05/04 02:50:48;;;;;;;8.55;5.28;;;;;;;11.22;57.62;99298.34;1792930;80;21006;-39
2022/05/04 02:53:14;;;;;;;12.30;5.22;;;;;;;11.22;58.28;99300.97;1793087;80;21523;-36
2022/05/04 02:55:40;;;;;;;12.03;5.67;;;;;;;11.27;58.16;99303.34;1793035;80;21597;-38
2022/05/04 02:58:06;;;;;;;8.55;5.62;;;;;;;11.29;58.01;99306.26;1793029;80;21428;-36
2022/05/04 03:00:32;;;;;;;11.35;5.53;;;;;;;11.29;57.60;99305.42;1792967;80;21519;-38
2022/05/04 03:02:58;;;;;;;9.98;5.58;;;;;;;11.29;57.81;99305.42;1792939;80;20978;-35
2022/05/04 03:05:25;;;;;;;7.80;5.10;;;;;;;11.30;57.75;99312.39;1792927;80;20988;-35
2022/05/04 03:07:51;;;;;;;8.23;5.30;;;;;;;11.26;58.29;99313.48;1793196;80;20991;-39
2022/05/04 03:10:17;;;;;;;9.80;5.80;;;;;;;11.26;58.08;99311.72;1793263;80;21162;-39
2022/05/04 03:12:44;;;;;;;10.20;5.90;;;;;;;11.25;58.06;99310.49;1792998;80;20995;-37
2022/05/04 03:15:10;;;;;;;10.05;6.03;;;;;;;11.27;57.80;99309.93;1792966;80;20994;-39
2022/05/04 03:17:36;;;;;;;12.07;6.47;;;;;;;11.24;58.03;99312.73;1793190;80;21039;-39
2022/05/04 03:20:03;;;;;;;8.90;5.95;;;;;;;11.23;58.64;99311.89;1792933;80;20986;-39
2022/05/04 03:22:29;;;;;;;13.90;5.37;;;;;;;11.18;58.11;99317.88;1793144;80;20991;-40
2022/05/04 03:24:55;;;;;;;10.85;5.20;;;;;;;11.17;59.13;99317.97;1793228;80;20998;-36
2022/05/04 03:27:21;;;;;;;8.10;5.10;;;;;;;11.16;58.98;99315.81;1792918;80;20994;-36
2022/05/04 03:29:47;;;;;;;10.30;5.40;;;;;;;11.16;59.05;99318.44;1792977;80;21014;-35
2022/05/04 03:32:13;;;;;;;8.30;5.17;;;;;;;11.17;59.37;99316.65;1792882;80;21030;-39
2022/05/04 03:34:39;;;;;;;7.15;4.80;;;;;;;11.16;59.29;99314.50;1792996;80;21030;-39
2022/05/04 03:37:05;;;;;;;10.20;5.15;;;;;;;11.17;59.54;99319.28;1793014;80;21022;-38
2022/05/04 03:39:31;;;;;;;7.67;4.95;;;;;;;11.17;59.38;99321.47;1792919;80;21035;-36
2022/05/04 03:41:57;;;;;;;10.45;5.90;;;;;;;11.16;59.98;99323.70;1789376;80;21497;-37
2022/05/04 03:44:24;;;;;;;9.08;5.40;;;;;;;11.16;60.35;99323.70;1779486;81;21483;-36
2022/05/04 03:46:52;;;;;;;11.38;6.05;;;;;;;11.17;60.44;99325.42;1779601;81;20995;-40
2022/05/04 03:49:23;;;;;;;10.65;4.83;;;;;;;11.20;59.82;99327.02;1779449;81;20955;-39
2022/05/04 03:51:53;;;;;;;11.08;5.40;;;;;;;11.19;60.10;99327.48;1779344;80;20968;-39
2022/05/04 03:54:19;;;;;;;7.78;5.35;;;;;;;11.24;59.71;99337.73;1779057;80;21011;-40
2022/05/04 03:56:45;;;;;;;11.18;5.28;;;;;;;11.25;59.55;99335.50;1778928;81;20986;-38
2022/05/04 03:59:11;;;;;;;15.20;5.60;;;;;;;11.27;59.83;99333.14;1778831;81;20980;-36
2022/05/04 04:01:38;;;;;;;12.35;5.50;;;;;;;11.27;59.89;99339.73;1778741;81;20975;-39
2022/05/04 04:04:04;;;;;;;12.58;5.53;;;;;;;11.26;60.34;99338.49;1778786;81;20999;-40
2022/05/04 04:06:32;;;;;;;7.58;5.45;;;;;;;11.25;60.22;99343.39;1778847;81;21019;-39
2022/05/04 04:08:57;;;;;;;10.28;5.05;;;;;;;11.25;59.96;99342.08;1778683;80;20968;-39
2022/05/04 04:11:23;;;;;;;6.40;5.00;;;;;;;11.23;60.72;99343.48;1778912;81;21030;-41
2022/05/04 04:13:49;;;;;;;11.38;6.37;;;;;;;11.24;60.03;99345.19;1778933;80;20988;-41
2022/05/04 04:16:16;;;;;;;12.43;6.12;;;;;;;11.24;60.21;99345.64;1778774;81;20984;-37
2022/05/04 04:18:42;;;;;;;10.72;6.47;;;;;;;11.28;60.31;99348.02;1778944;81;21011;-37
2022/05/04 04:23:51;;;;;;;9.08;6.25;;;;;;;11.24;61.15;99349.14;1778843;80;21375;-39
2022/05/04 04:26:17;;;;;;;12.65;6.37;;;;;;;11.24;60.92;99352.22;1778812;80;21035;-41
2022/05/04 04:28:43;;;;;;;17.37;6.75;;;;;;;11.21;61.36;99354.56;1778831;81;20991;-38
2022/05/04 04:31:09;;;;;;;10.25;5.50;;;;;;;11.22;60.73;99350.14;1778906;80;21492;-38
2022/05/04 04:33:36;;;;;;;9.20;5.50;;;;;;;11.25;60.71;99350.81;1778863;80;21003;-38
2022/05/04 04:36:04;;;;;;;7.75;5.22;;;;;;;11.28;60.46;99355.08;1778941;81;21034;-39
2022/05/04 04:38:30;;;;;;;12.05;5.60;;;;;;;11.29;60.95;99359.39;1778899;81;21023;-39
2022/05/04 04:40:57;;;;;;;11.95;5.53;;;;;;;11.33;61.02;99360.90;1778887;81;20995;-40
2022/05/04 04:43:23;;;;;;;9.70;5.45;;;;;;;11.37;60.70;99361.13;1784775;80;21018;-38
2022/05/04 04:45:50;;;;;;;10.95;5.78;;;;;;;11.40;60.65;99368.83;1787064;80;21030;-37
2022/05/04 04:48:17;;;;;;;10.28;5.35;;;;;;;11.45;60.78;99367.27;1787268;80;20960;-36
2022/05/04 04:50:45;;;;;;;8.20;5.50;;;;;;;11.49;60.69;99369.61;1787225;80;21520;-38
2022/05/04 04:53:12;;;;;;;10.15;5.35;;;;;;;11.53;60.57;99365.89;1786458;80;21533;-38
2022/05/04 04:55:44;;;;;;;10.13;5.58;;;;;;;11.61;60.47;99372.50;1787127;80;20991;-39
2022/05/04 04:58:10;;;;;;;9.10;5.62;;;;;;;11.65;60.55;99370.05;1787096;80;20994;-37
2022/05/04 05:00:37;;;;;;;9.18;5.45;;;;;;;11.70;60.16;99368.84;1786056;80;21554;-40
2022/05/04 05:03:04;;;;;;;9.63;5.40;;;;;;;11.76;60.32;99374.22;1787106;80;20982;-38
2022/05/04 05:05:29;;;;;;;7.25;5.22;;;;;;;11.81;60.23;99376.12;1786963;80;21003;-38
2022/05/04 05:07:56;;;;;;;10.75;5.28;;;;;;;11.91;60.26;99376.44;1787004;80;21082;-38
2022/05/04 05:10:22;;;;;;;13.75;5.40;;;;;;;12.00;60.04;99382.96;1787051;80;20991;-36
2022/05/04 05:12:50;;;;;;;11.65;5.37;;;;;;;12.07;59.79;99382.49;1787029;80;20999;-37
2022/05/04 05:18:01;;;;;;;17.85;6.45;;;;;;;12.25;59.61;99387.12;1787025;80;21018;-39
2022/05/04 05:20:28;;;;;;;9.38;4.97;;;;;;;12.33;59.38;99386.66;1787024;80;21509;-39
2022/05/04 05:22:53;;;;;;;11.70;5.20;;;;;;;12.41;59.19;99391.48;1786921;80;21457;-37
2022/05/04 05:25:19;;;;;;;7.35;5.03;;;;;;;12.48;58.95;99392.80;1787033;80;21002;-38
2022/05/04 05:27:45;;;;;;;6.42;4.75;;;;;;;12.55;59.31;99392.80;1786981;80;20979;-35
2022/05/04 05:30:13;;;;;;;7.47;5.45;;;;;;;12.61;58.68;99396.38;1786996;80;20990;-38
2022/05/04 05:32:39;;;;;;;9.75;5.03;;;;;;;12.60;58.35;99390.70;1787102;80;21002;-36
2022/05/04 05:35:06;;;;;;;9.70;5.08;;;;;;;12.58;58.44;99392.59;1787211;80;20987;-36
2022/05/04 05:37:32;;;;;;;7.00;4.58;;;;;;;12.56;58.38;99389.21;1787035;80;20987;-37
2022/05/04 05:39:58;;;;;;;11.88;5.05;;;;;;;12.52;58.27;99389.51;1786981;80;21022;-39
2022/05/04 05:42:24;;;;;;;11.28;4.87;;;;;;;12.51;58.19;99391.28;1785205;80;21015;-36
2022/05/04 05:44:50;;;;;;;13.62;4.87;;;;;;;12.46;58.33;99387.62;1778773;81;21038;-36
2022/05/04 05:47:17;;;;;;;7.55;4.75;;;;;;;12.48;58.21;99388.38;1778740;80;20991;-38
2022/05/04 05:49:42;;;;;;;13.98;4.97;;;;;;;12.41;58.46;99383.09;1778749;80;20984;-40
2022/05/04 05:52:10;;;;;;;7.42;4.25;;;;;;;12.43;58.37;99386.48;1778710;80;21489;-37
2022/05/04 05:54:36;;;;;;;7.10;4.08;;;;;;;12.46;58.37;99390.26;1779076;80;21026;-40
2022/05/04 05:57:02;;;;;;;12.05;4.75;;;;;;;12.50;58.25;99390.92;1779003;80;20991;-37
2022/05/04 05:59:28;;;;;;;8.68;4.67;;;;;;;12.55;58.23;99394.13;1778692;80;21416;-40
2022/05/04 06:01:54;;;;;;;10.13;4.53;;;;;;;12.61;57.87;99392.41;1778756;80;21349;-39
2022/05/04 06:04:19;;;;;;;10.68;5.92;;;;;;;12.64;57.79;99389.59;1778691;81;21524;-40
2022/05/04 06:06:46;;;;;;;20.23;5.53;;;;;;;12.67;57.88;99391.18;1778804;80;21557;-40
2022/05/04 06:09:12;;;;;;;17.17;4.75;;;;;;;12.73;57.76;99388.15;1778687;80;20995;-38
2022/05/04 06:11:37;;;;;;;10.05;4.55;;;;;;;12.79;57.91;99390.91;1778683;80;20992;-40
2022/05/04 06:14:03;;;;;;;14.90;5.10;;;;;;;12.81;57.70;99393.80;1778696;81;20995;-40
2022/05/04 06:16:29;;;;;;;10.20;4.67;;;;;;;12.87;57.48;99395.20;1778685;81;20983;-37
2022/05/04 06:18:55;;;;;;;13.22;4.58;;;;;;;12.87;57.24;99393.41;1778625;80;20975;-39
2022/05/04 06:21:21;;;;;;;7.30;4.45;;;;;;;12.89;57.04;99401.23;1778657;80;20992;-38
2022/05/04 06:23:47;;;;;;;6.28;4.12;;;;;;;12.89;57.02;99403.03;1778645;80;21019;-40
2022/05/04 06:26:13;;;;;;;13.88;5.20;;;;;;;12.91;57.16;99405.94;1778672;80;21894;-39
2022/05/04 06:28:39;;;;;;;7.17;4.58;;;;;;;12.91;57.20;99406.42;1778685;81;21003;-38
2022/05/04 06:34:06;;;;;;;8.95;4.25;;;;;;;13.03;56.60;99410.93;1778690;81;21087;-38
2022/05/04 06:36:34;;;;;;;8.48;4.20;;;;;;;13.15;56.50;99406.64;1778699;81;20999;-38
2022/05/04 06:39:00;;;;;;;14.78;4.55;;;;;;;13.29;56.28;99411.05;1777748;80;20971;-38
2022/05/04 06:41:27;;;;;;;9.88;3.83;;;;;;;13.40;56.01;99405.95;1778663;81;20983;-40
2022/05/04 06:43:53;;;;;;;9.63;4.07;;;;;;;13.48;55.61;99402.80;1784596;80;21654;-40
2022/05/04 06:46:19;;;;;;;6.85;4.10;;;;;;;13.51;55.64;99403.44;1786899;80;21037;-40
2022/05/04 06:48:45;;;;;;;10.98;4.12;;;;;;;13.55;55.43;99406.28;1786940;80;21107;-40
2022/05/04 06:51:12;;;;;;;6.58;3.90;;;;;;;13.55;55.63;99413.34;1787190;80;20991;-36
2022/05/04 06:53:38;;;;;;;6.78;4.35;;;;;;;13.58;55.41;99414.47;1786928;80;20990;-37
2022/05/04 06:56:04;;;;;;;6.72;3.05;;;;;;;13.63;54.84;99413.21;1786962;80;21459;-40
2022/05/04 06:58:30;;;;;;;5.78;2.83;;;;;;;13.65;53.52;99413.11;1786873;80;21538;-39
2022/05/04 07:00:55;;;;;;;19.50;4.90;;;;;;;13.72;53.79;99410.44;1786958;80;20948;-36
2022/05/04 07:03:21;;;;;;;16.17;5.10;;;;;;;13.69;53.35;99407.98;1787007;80;20980;-38
2022/05/04 07:05:48;;;;;;;10.05;5.03;;;;;;;13.73;53.91;99403.34;1787011;80;21134;-36
2022/05/04 07:08:14;;;;;;;11.45;4.60;;;;;;;13.78;54.35;99409.19;1787063;80;20967;-36
2022/05/04 07:10:40;;;;;;;10.00;5.10;;;;;;;13.81;54.30;99403.22;1786944;80;20990;-38
2022/05/04 07:13:06;;;;;;;12.78;4.67;;;;;;;13.83;54.30;99401.80;1787084;80;20991;-39
2022/05/04 07:15:33;;;;;;;11.67;4.20;;;;;;;13.87;54.15;99407.73;1787153;80;20995;-39
2022/05/04 07:17:59;;;;;;;7.33;4.53;;;;;;;13.92;53.95;99408.27;1787258;80;20995;-38
2022/05/04 07:20:25;;;;;;;5.55;4.00;;;;;;;13.93;53.92;99417.88;1787149;80;21487;-36
2022/05/04 07:22:51;;;;;;;5.33;3.62;;;;;;;13.98;53.46;99420.58;1786869;80;20988;-40
2022/05/04 07:25:17;;;;;;;10.40;3.90;;;;;;;14.02;53.30;99421.22;1786919;80;20998;-36
2022/05/04 07:27:43;;;;;;;11.43;4.03;;;;;;;14.04;53.26;99421.95;1786842;80;20998;-36
2022/05/04 07:30:10;;;;;;;5.47;3.35;;;;;;;14.09;53.03;99421.17;1787125;80;20994;-39
2022/05/04 07:32:36;;;;;;;;;;;;;;;14.15;52.75;99417.27;1789743;80;20998;-36
2022/05/04 07:35:02;;;;;;;10.40;3.87;;;;;;;14.18;52.11;99419.23;1787072;80;20103;-40
2022/05/04 07:37:28;;;;;;;11.05;3.85;;;;;;;14.24;52.46;99426.38;1787094;80;20991;-38
2022/05/04 07:42:40;;;;;;;4.17;3.67;;;;;;;14.29;51.54;99421.63;1786781;80;21437;-39
2022/05/04 07:45:08;;;;;;;;;;;;;;;14.33;51.63;99424.42;1781340;81;20951;-37
2022/05/04 07:47:36;;;;;;;5.65;3.45;;;;;;;14.32;51.10;99434.65;1778376;81;20100;-38
2022/05/04 07:50:05;;;;;;;7.67;4.03;;;;;;;14.36;51.36;99434.32;1778965;80;20987;-38
2022/05/04 07:52:31;;;;;;;5.80;4.17;;;;;;;14.40;51.25;99436.28;1778820;80;21047;-38
2022/05/04 07:54:57;;;;;;;6.67;4.17;;;;;;;14.50;51.01;99436.02;1778796;81;20994;-39
2022/05/04 07:57:23;;;;;;;12.40;4.15;;;;;;;14.55;50.77;99439.20;1778788;80;21031;-37
2022/05/04 08:05:21;;;;;;;5.60;3.62;;;;;;;14.79;50.11;99437.16;1778881;80;21015;-39
2022/05/04 08:07:47;;;;;;;75.22;8.20;;;;;;;14.92;50.36;99445.91;1778765;81;20972;-36
2022/05/04 08:10:13;;;;;;;10.23;3.80;;;;;;;15.06;49.74;99432.16;1779023;81;21488;-40
2022/05/04 08:12:39;;;;;;;11.57;3.58;;;;;;;15.23;49.75;99437.58;1778799;81;20979;-41
2022/05/04 08:15:06;;;;;;;5.72;3.62;;;;;;;15.31;48.86;99441.83;1778762;81;21003;-39
2022/05/04 08:17:32;;;;;;;6.50;3.40;;;;;;;15.36;48.82;99444.52;1778910;81;21468;-38
2022/05/04 08:19:59;;;;;;;6.25;3.47;;;;;;;15.51;48.49;99441.70;1778770;80;21492;-37
2022/05/04 08:22:26;;;;;;;13.22;4.12;;;;;;;15.60;47.68;99437.05;1778873;81;21445;-36
2022/05/04 08:24:52;;;;;;;6.42;3.85;;;;;;;15.68;47.86;99444.42;1778904;81;20976;-40
2022/05/04 08:27:19;;;;;;;4.45;3.70;;;;;;;15.70;48.28;99445.19;1778818;80;20992;-39
2022/05/04 08:29:46;;;;;;;6.17;3.50;;;;;;;15.89;48.03;99446.84;1779012;80;21464;-39
2022/05/04 08:32:13;;;;;;;5.75;3.58;;;;;;;16.07;47.60;99450.41;1778937;81;21002;-38
2022/05/04 08:34:39;;;;;;;7.10;3.52;;;;;;;16.00;47.04;99448.69;1779028;80;20987;-39
2022/05/04 08:37:05;;;;;;;6.33;3.42;;;;;;;15.96;46.62;99448.56;1778830;80;20995;-37
2022/05/04 08:39:31;;;;;;;7.57;3.27;;;;;;;16.00;46.63;99451.83;1779049;81;20999;-40
2022/05/04 08:41:58;;;;;;;8.15;3.65;;;;;;;15.94;46.49;99451.81;1778734;81;20960;-38
2022/05/04 08:44:24;;;;;;;5.95;3.40;;;;;;;16.07;46.86;99451.24;1779015;80;21015;-37
2022/05/04 08:46:51;;;;;;;5.62;3.83;;;;;;;16.21;46.78;99453.32;1778789;80;20991;-38
2022/05/04 08:49:19;;;;;;;4.67;3.25;;;;;;;16.32;46.37;99453.38;1778893;81;20987;-41
2022/05/04 08:51:48;;;;;;;7.25;3.27;;;;;;;16.34;45.98;99451.44;1779043;80;21014;-37
2022/05/04 08:54:14;;;;;;;9.13;3.52;;;;;;;16.34;45.82;99451.44;1778626;80;21096;-39
2022/05/04 08:56:40;;;;;;;9.93;3.95;;;;;;;16.41;45.96;99453.13;1778826;81;20999;-40
2022/05/04 08:59:07;;;;;;;8.10;4.12;;;;;;;16.39;44.64;99450.61;1778121;81;21007;-39
2022/05/04 09:01:34;;;;;;;;;;;;;;;16.50;45.65;99459.08;1781134;80;21538;-37
2022/05/04 09:04:00;;;;;;;3.98;3.52;;;;;;;16.44;45.12;99460.37;1756609;81;20421;-38
2022/05/04 09:06:29;;;;;;;4.75;3.77;;;;;;;16.47;45.72;99460.14;1777888;81;20967;-37
2022/05/04 09:09:13;;;;;;;4.53;4.03;;;;;;;16.41;45.80;99457.97;1778770;81;20971;-41
2022/05/04 09:11:42;;;;;;;8.68;4.17;;;;;;;16.49;45.65;99452.90;1778561;80;20983;-36
2022/05/04 09:14:12;;;;;;;13.50;3.87;;;;;;;16.54;46.05;99451.72;1777934;80;21039;-39
2022/05/04 09:16:38;;;;;;;8.13;4.28;;;;;;;16.74;45.71;99456.81;1778650;80;21022;-38
2022/05/04 09:19:13;;;;;;;7.65;4.83;;;;;;;16.76;45.16;99457.53;1778613;80;21042;-38
2022/05/04 09:21:40;;;;;;;9.45;4.05;;;;;;;16.76;44.74;99453.05;1778593;81;20979;-38
2022/05/04 09:24:08;;;;;;;7.37;4.10;;;;;;;16.63;44.92;99456.31;1777874;80;21040;-38
2022/05/04 09:26:40;;;;;;;8.05;3.80;;;;;;;16.57;45.01;99442.17;1778528;81;20991;-40
2022/05/04 09:29:06;;;;;;;6.35;4.05;;;;;;;16.63;45.15;99449.67;1777510;80;20991;-40
2022/05/04 09:31:33;;;;;;;9.25;3.30;;;;;;;16.63;45.01;99457.64;1777831;80;21012;-38
2022/05/04 09:34:03;;;;;;;7.33;4.07;;;;;;;16.55;45.14;99457.38;1779049;81;21047;-39
2022/05/04 09:36:37;;;;;;;6.65;3.90;;;;;;;16.55;45.03;99450.25;1778720;80;20992;-38
2022/05/04 09:45:15;;;;;;;5.97;3.47;;;;;;;16.35;44.57;99456.26;1785242;80;21031;-41
2022/05/04 09:47:46;;;;;;;6.58;3.70;;;;;;;16.36;44.73;99448.67;1783826;80;21022;-34
2022/05/04 09:50:16;;;;;;;6.65;4.22;;;;;;;16.34;44.90;99450.61;1747256;81;21063;-37
2022/05/04 09:52:49;;;;;;;7.85;3.70;;;;;;;16.28;45.00;99451.44;1747730;81;20995;-37
2022/05/04 09:55:26;;;;;;;7.08;3.77;;;;;;;16.20;45.17;99448.99;1746879;82;21607;-41
2022/05/04 09:57:52;;;;;;;6.67;3.77;;;;;;;16.29;45.51;99449.61;1745530;82;22005;-38
2022/05/04 10:00:21;;;;;;;6.03;4.05;;;;;;;16.42;45.29;99449.52;1746615;82;21034;-39
2022/05/04 10:02:52;;;;;;;8.53;3.75;;;;;;;16.48;45.16;99448.58;1747712;82;21031;-38
2022/05/04 10:05:19;;;;;;;9.45;3.72;;;;;;;16.54;44.85;99446.41;1747706;82;21599;-41
2022/05/04 10:07:47;;;;;;;;;;;;;;;16.61;44.78;99447.63;1750372;82;20976;-40
2022/05/04 10:10:18;;;;;;;5.05;3.15;;;;;;;16.66;44.52;99446.30;1747641;81;20110;-40
2022/05/04 10:12:44;;;;;;;4.00;3.22;;;;;;;16.74;44.35;99450.17;1746280;81;21862;-41
2022/05/04 10:15:13;;;;;;;7.90;3.67;;;;;;;16.82;44.26;99448.58;1759151;80;20968;-37
2022/05/04 10:18:04;;;;;;;6.87;3.65;;;;;;;16.88;44.01;99450.80;1788644;80;22046;-40
2022/05/04 10:20:39;;;;;;;8.48;4.30;;;;;;;16.94;43.92;99448.14;1769558;80;21054;-37
2022/05/04 10:23:14;;;;;;;8.05;4.12;;;;;;;17.01;44.18;99448.02;1786895;80;21022;-39
2022/05/04 10:25:42;;;;;;;7.00;4.15;;;;;;;16.92;44.49;99450.08;1787160;80;20979;-37
2022/05/04 10:28:12;;;;;;;9.75;4.40;;;;;;;17.04;44.32;99441.59;1786709;80;20963;-41
2022/05/04 10:30:57;;;;;;;5.45;3.92;;;;;;;17.09;44.43;99451.38;1786899;80;20970;-41
2022/05/04 10:33:32;;;;;;;8.90;4.37;;;;;;;17.13;44.18;99440.86;1786893;80;21479;-37
2022/05/04 10:36:20;;;;;;;10.55;4.45;;;;;;;17.29;43.98;99444.95;1780634;80;21065;-38
2022/05/04 10:38:52;;;;;;;4.25;3.75;;;;;;;17.39;43.95;99441.89;1785202;80;21452;-37
2022/05/04 10:41:37;;;;;;;15.70;4.40;;;;;;;17.37;43.62;99444.70;1756364;80;20986;-38
2022/05/04 10:44:04;;;;;;;7.75;3.90;;;;;;;17.64;43.87;99440.73;1780252;80;21042;-40
2022/05/04 10:46:32;;;;;;;5.72;4.25;;;;;;;19.42;43.60;99437.12;1785886;80;20952;-37
2022/05/04 10:49:05;;;;;;;4.72;3.55;;;;;;;21.37;40.59;99428.19;1769616;80;20940;-38
2022/05/04 10:51:33;;;;;;;6.58;3.25;;;;;;;22.98;36.63;99435.65;1778591;80;20982;-39
2022/05/04 10:54:09;;;;;;;4.62;3.10;;;;;;;24.38;36.46;99431.88;1751519;80;21424;-40
2022/05/04 10:56:45;;;;;;;7.40;3.67;;;;;;;25.31;33.91;99439.33;1749600;82;21035;-41
2022/05/04 10:59:27;;;;;;;7.87;3.20;;;;;;;26.25;32.73;99433.80;1729455;80;21050;-37
2022/05/04 11:02:05;;;;;;;5.10;2.80;;;;;;;26.22;28.81;99437.68;1782519;80;20991;-40
2022/05/04 11:04:36;;;;;;;3.27;2.85;;;;;;;25.87;31.18;99435.10;1787072;80;21037;-40
2022/05/04 11:07:07;;;;;;;5.75;2.90;;;;;;;24.97;30.86;99439.63;1771932;80;21428;-37
2022/05/04 11:09:43;;;;;;;5.03;2.95;;;;;;;24.48;31.07;99435.19;1755898;82;21001;-38
2022/05/04 11:12:11;;;;;;;3.35;3.05;;;;;;;24.00;31.10;99433.73;1755088;82;20962;-35
2022/05/04 11:14:38;;;;;;;8.60;3.40;;;;;;;23.87;31.17;99428.04;1755174;82;21005;-39
2022/05/04 11:17:14;;;;;;;5.90;2.85;;;;;;;23.67;31.08;99426.97;1756018;82;20997;-38
2022/05/04 11:19:47;;;;;;;3.60;3.30;;;;;;;23.41;31.15;99423.05;1755031;82;20946;-37
2022/05/04 11:22:16;;;;;;;11.35;3.10;;;;;;;23.51;30.44;99429.63;1755894;82;21026;-38
2022/05/04 11:24:43;;;;;;;3.85;3.10;;;;;;;23.43;31.01;99429.13;1755853;82;20982;-37
2022/05/04 11:27:11;;;;;;;5.60;3.27;;;;;;;23.31;29.51;99425.89;1754801;80;21328;-37
2022/05/04 11:29:37;;;;;;;8.60;3.75;;;;;;;23.38;30.55;99424.23;1754582;82;21532;-44
2022/05/04 11:32:06;;;;;;;5.87;3.37;;;;;;;24.77;28.97;99427.92;1755250;82;21007;-40
2022/05/04 11:34:40;;;;;;;8.20;3.65;;;;;;;25.98;28.32;99427.96;1755079;82;21544;-38
2022/05/04 11:37:08;;;;;;;6.12;3.25;;;;;;;26.97;27.68;99430.49;1754056;82;20995;-39
2022/05/04 11:39:37;;;;;;;10.23;3.35;;;;;;;26.91;27.18;99427.73;1755551;82;21045;-40
2022/05/04 11:42:05;;;;;;;5.78;2.87;;;;;;;25.59;27.15;99417.28;1755801;82;21090;-39
2022/05/04 11:44:32;;;;;;;3.05;2.72;;;;;;;25.55;27.69;99424.88;1752442;81;21110;-39
2022/05/04 11:47:01;;;;;;;4.33;2.87;;;;;;;25.75;27.65;99420.38;1747749;82;21054;-40
2022/05/04 11:49:30;;;;;;;4.30;2.95;;;;;;;25.92;26.95;99413.81;1747528;82;21066;-39
2022/05/04 11:51:58;;;;;;;4.25;2.67;;;;;;;26.15;26.35;99417.04;1747832;82;21007;-41
2022/05/04 11:54:25;;;;;;;3.75;3.08;;;;;;;27.53;25.98;99421.84;1747784;82;21523;-39
2022/05/04 11:56:51;;;;;;;7.67;2.95;;;;;;;28.40;24.49;99420.42;1747862;82;21031;-37
2022/05/04 11:59:17;;;;;;;6.83;3.15;;;;;;;28.59;24.37;99414.87;1747936;82;20987;-38
2022/05/04 12:01:44;;;;;;;7.40;3.17;;;;;;;28.58;24.12;99414.54;1747438;82;21019;-41
2022/05/04 12:04:13;;;;;;;4.90;2.95;;;;;;;28.34;23.89;99412.09;1747621;82;20991;-38